createdAt,value
2019-03-03T00:02:05.115Z,99.90
2019-03-03T00:04:34.845Z,99.90
2019-03-03T00:07:04.683Z,99.90
2019-03-03T00:09:34.451Z,99.90
2019-03-03T00:12:04.127Z,99.90
2019-03-03T00:14:33.871Z,99.90
2019-03-03T00:17:03.982Z,99.90
2019-03-03T00:19:33.778Z,99.90
2019-03-03T00:22:03.497Z,99.90
2019-03-03T00:24:33.222Z,99.90
2019-03-03T00:27:02.973Z,99.90
2019-03-03T00:29:32.694Z,99.90
2019-03-03T00:32:02.423Z,99.90
2019-03-03T00:34:32.146Z,99.90
2019-03-03T00:37:17.376Z,99.90
2019-03-03T00:40:05.980Z,99.90
2019-03-03T00:43:09.817Z,99.90
2019-03-03T00:45:52.652Z,99.90
2019-03-03T00:48:37.196Z,99.90
2019-03-03T00:51:34.240Z,99.90
2019-03-03T00:54:15.516Z,99.90
2019-03-03T00:57:06.185Z,99.90
2019-03-03T00:59:45.220Z,99.90
2019-03-03T01:02:32.263Z,99.90
2019-03-03T01:05:26.663Z,99.90
2019-03-03T01:08:30.388Z,99.90
2019-03-03T01:11:29.710Z,99.90
2019-03-03T01:14:18.269Z,99.90
2019-03-03T01:17:06.888Z,99.90
2019-03-03T01:20:07.107Z,99.90
2019-03-03T01:22:55.646Z,99.90
2019-03-03T01:25:25.383Z,99.90
2019-03-03T01:27:55.087Z,99.90
2019-03-03T01:30:24.755Z,99.90
2019-03-03T01:32:54.468Z,99.90
2019-03-03T01:35:24.163Z,99.90
2019-03-03T01:37:53.850Z,99.90
2019-03-03T01:40:23.602Z,99.90
2019-03-03T01:42:53.367Z,99.90
2019-03-03T01:45:23.068Z,99.90
2019-03-03T01:47:52.776Z,99.90
2019-03-03T01:50:22.496Z,99.90
2019-03-03T01:52:53.170Z,99.90
2019-03-03T01:55:22.951Z,99.90
2019-03-03T01:57:52.740Z,99.90
2019-03-03T02:00:25.482Z,99.90
2019-03-03T02:02:56.509Z,99.90
2019-03-03T02:05:26.323Z,99.90
2019-03-03T02:07:56.113Z,99.90
2019-03-03T02:10:25.948Z,99.90
2019-03-03T02:12:55.762Z,99.90
2019-03-03T02:15:25.575Z,99.90
2019-03-03T02:17:55.296Z,99.90
2019-03-03T02:20:25.467Z,99.90
2019-03-03T02:22:55.208Z,99.90
2019-03-03T02:25:24.939Z,99.90
2019-03-03T02:27:54.698Z,99.90
2019-03-03T02:30:24.407Z,99.90
2019-03-03T02:32:54.097Z,99.90
2019-03-03T02:35:23.827Z,99.90
2019-03-03T02:37:54.856Z,99.90
2019-03-03T02:40:24.528Z,99.90
2019-03-03T02:42:54.287Z,99.90
2019-03-03T02:45:23.964Z,99.90
2019-03-03T02:47:53.700Z,99.90
2019-03-03T02:50:23.422Z,99.90
2019-03-03T02:52:53.181Z,99.90
2019-03-03T02:55:22.850Z,99.90
2019-03-03T02:57:52.557Z,99.90
2019-03-03T03:00:22.614Z,99.90
2019-03-03T03:02:54.716Z,99.90
2019-03-03T03:06:00.302Z,99.90
2019-03-03T03:08:51.525Z,99.90
2019-03-03T03:11:28.648Z,99.90
2019-03-03T03:14:26.201Z,99.90
2019-03-03T03:17:08.431Z,99.90
2019-03-03T03:19:59.827Z,99.90
2019-03-03T03:22:36.854Z,99.90
2019-03-03T03:25:18.616Z,99.90
2019-03-03T03:28:10.920Z,99.90
2019-03-03T03:30:48.414Z,99.90
2019-03-03T03:33:37.092Z,99.90
2019-03-03T03:36:28.448Z,99.90
2019-03-03T03:39:15.527Z,99.90
2019-03-03T03:41:59.384Z,99.90
2019-03-03T03:44:50.327Z,99.90
2019-03-03T03:47:38.899Z,99.90
2019-03-03T03:50:17.832Z,99.90
2019-03-03T03:53:04.132Z,99.90
2019-03-03T03:55:53.223Z,99.90
2019-03-03T03:58:28.375Z,99.90
2019-03-03T04:01:16.776Z,99.90
2019-03-03T04:04:06.070Z,99.90
2019-03-03T04:06:57.792Z,99.90
2019-03-03T04:09:46.382Z,99.90
2019-03-03T04:12:34.959Z,99.90
2019-03-03T04:15:10.247Z,99.90
2019-03-03T04:17:57.235Z,99.90
2019-03-03T04:20:39.743Z,99.90
2019-03-03T04:23:27.047Z,99.90
2019-03-03T04:26:14.362Z,99.90
2019-03-03T04:29:01.849Z,99.90
2019-03-03T04:31:50.468Z,99.90
2019-03-03T04:34:30.088Z,99.90
2019-03-03T04:37:17.367Z,99.90
2019-03-03T04:40:08.950Z,99.90
2019-03-03T04:43:00.264Z,99.90
2019-03-03T04:45:44.474Z,99.90
2019-03-03T04:48:26.138Z,99.90
2019-03-03T04:51:17.778Z,99.90
2019-03-03T04:54:06.392Z,99.90
2019-03-03T04:56:56.640Z,99.90
2019-03-03T04:59:45.032Z,99.90
2019-03-03T05:02:40.124Z,99.90
2019-03-03T05:05:27.423Z,99.90
2019-03-03T05:08:20.199Z,99.90
2019-03-03T05:11:28.155Z,99.90
2019-03-03T05:14:14.400Z,99.90
2019-03-03T05:16:56.732Z,99.90
2019-03-03T05:19:44.995Z,99.90
2019-03-03T05:22:14.751Z,99.90
2019-03-03T05:24:44.442Z,99.90
2019-03-03T05:27:14.219Z,99.90
2019-03-03T05:29:43.945Z,99.90
2019-03-03T05:32:13.663Z,99.90
2019-03-03T05:34:43.362Z,99.90
2019-03-03T05:37:13.069Z,99.90
2019-03-03T05:39:42.814Z,99.90
2019-03-03T05:42:12.536Z,99.90
2019-03-03T05:44:42.260Z,99.90
2019-03-03T05:47:11.995Z,99.90
2019-03-03T05:49:41.707Z,99.90
2019-03-03T05:52:11.412Z,99.90
2019-03-03T05:54:41.125Z,99.90
2019-03-03T05:57:10.859Z,99.90
2019-03-03T05:59:40.506Z,99.90
2019-03-03T06:02:10.201Z,99.90
2019-03-03T06:04:39.966Z,99.90
2019-03-03T06:07:10.152Z,99.90
2019-03-03T06:09:39.875Z,99.90
2019-03-03T06:12:09.579Z,99.90
2019-03-03T06:14:39.338Z,99.90
2019-03-03T06:17:09.032Z,99.90
2019-03-03T06:19:38.764Z,99.90
2019-03-03T06:22:08.527Z,99.90
2019-03-03T06:24:38.176Z,99.90
2019-03-03T06:27:07.843Z,99.90
2019-03-03T06:29:37.531Z,99.90
2019-03-03T06:32:07.256Z,99.90
2019-03-03T06:34:36.940Z,99.90
2019-03-03T06:37:06.681Z,99.90
2019-03-03T06:39:36.389Z,99.90
2019-03-03T06:42:06.105Z,99.90
2019-03-03T06:44:35.833Z,99.90
2019-03-03T06:47:05.512Z,99.90
2019-03-03T06:49:35.252Z,99.90
2019-03-03T06:52:04.963Z,99.90
2019-03-03T06:54:34.662Z,99.90
2019-03-03T06:57:04.384Z,99.90
2019-03-03T06:59:34.125Z,99.90
2019-03-03T07:02:04.318Z,99.90
2019-03-03T07:04:34.040Z,99.90
2019-03-03T07:07:03.710Z,99.90
2019-03-03T07:09:33.469Z,99.90
2019-03-03T07:12:03.151Z,99.90
2019-03-03T07:14:32.813Z,99.90
2019-03-03T07:17:02.542Z,99.90
2019-03-03T07:19:32.205Z,99.90
2019-03-03T07:22:01.916Z,99.90
2019-03-03T07:24:31.639Z,99.90
2019-03-03T07:27:01.308Z,99.90
2019-03-03T07:29:31.016Z,99.90
2019-03-03T07:32:00.746Z,99.90
2019-03-03T07:34:30.411Z,99.90
2019-03-03T07:37:00.484Z,99.90
2019-03-03T07:39:30.238Z,99.90
2019-03-03T07:41:59.988Z,99.90
2019-03-03T07:44:29.758Z,99.90
2019-03-03T07:46:59.687Z,99.90
2019-03-03T07:49:29.347Z,99.90
2019-03-03T07:51:59.140Z,99.90
2019-03-03T07:54:28.863Z,99.90
2019-03-03T07:56:58.535Z,99.90
2019-03-03T07:59:28.239Z,99.90
2019-03-03T08:01:58.052Z,99.90
2019-03-03T08:04:27.764Z,99.90
2019-03-03T08:06:57.502Z,99.90
2019-03-03T08:09:27.251Z,99.90
2019-03-03T08:11:57.018Z,99.90
2019-03-03T08:14:26.720Z,99.90
2019-03-03T08:16:56.605Z,99.90
2019-03-03T08:19:26.307Z,99.90
2019-03-03T08:21:55.973Z,99.90
2019-03-03T08:24:25.767Z,99.90
2019-03-03T08:26:55.521Z,99.90
2019-03-03T08:29:26.810Z,99.90
2019-03-03T08:31:56.500Z,99.90
2019-03-03T08:34:26.207Z,99.90
2019-03-03T08:36:55.932Z,99.90
2019-03-03T08:39:25.597Z,99.90
2019-03-03T08:42:00.850Z,99.20
2019-03-03T08:44:52.471Z,97.90
2019-03-03T08:47:35.435Z,98.00
2019-03-03T08:50:30.267Z,96.00
2019-03-03T08:53:37.244Z,95.30
2019-03-03T08:56:23.033Z,94.90
2019-03-03T08:59:23.459Z,95.20
2019-03-03T09:02:27.292Z,95.20
2019-03-03T09:05:14.455Z,96.10
2019-03-03T09:08:00.659Z,96.80
2019-03-03T09:10:43.604Z,97.60
2019-03-03T09:13:35.345Z,98.00
2019-03-03T09:16:22.782Z,97.90
2019-03-03T09:19:17.388Z,97.70
2019-03-03T09:22:15.082Z,97.20
2019-03-03T09:25:07.943Z,96.60
2019-03-03T09:28:11.743Z,95.90
2019-03-03T09:30:57.164Z,95.90
2019-03-03T09:33:49.520Z,95.70
2019-03-03T09:36:44.404Z,95.70
2019-03-03T09:39:41.934Z,95.30
2019-03-03T09:42:21.777Z,94.40
2019-03-03T09:45:22.570Z,94.50
2019-03-03T09:48:14.092Z,94.20
2019-03-03T09:51:08.909Z,94.40
2019-03-03T09:54:07.478Z,94.70
2019-03-03T09:56:54.443Z,94.70
2019-03-03T09:59:49.323Z,94.70
2019-03-03T10:02:37.941Z,95.20
2019-03-03T10:05:25.688Z,94.20
2019-03-03T10:08:20.263Z,93.50
2019-03-03T10:11:01.654Z,92.30
2019-03-03T10:13:54.251Z,92.10
2019-03-03T10:16:44.688Z,91.60
2019-03-03T10:19:41.240Z,91.60
2019-03-03T10:22:29.965Z,91.50
2019-03-03T10:25:17.136Z,91.20
2019-03-03T10:28:02.248Z,91.40
2019-03-03T10:30:50.734Z,91.20
2019-03-03T10:33:28.066Z,91.00
2019-03-03T10:36:28.776Z,91.00
2019-03-03T10:39:17.763Z,91.00
2019-03-03T10:41:57.081Z,91.30
2019-03-03T10:44:41.650Z,91.30
2019-03-03T10:47:42.187Z,91.30
2019-03-03T10:50:21.845Z,91.80
2019-03-03T10:52:59.187Z,92.10
2019-03-03T10:56:00.007Z,92.50
2019-03-03T10:58:47.707Z,93.10
2019-03-03T11:01:42.476Z,93.60
2019-03-03T11:04:29.727Z,94.20
2019-03-03T11:07:14.913Z,94.90
2019-03-03T11:10:02.146Z,96.00
2019-03-03T11:12:50.961Z,97.60
2019-03-03T11:15:44.581Z,98.10
2019-03-03T11:18:43.404Z,98.10
2019-03-03T11:21:30.630Z,98.30
2019-03-03T11:24:10.316Z,98.20
2019-03-03T11:27:11.075Z,98.70
2019-03-03T11:29:50.266Z,98.80
2019-03-03T11:32:44.730Z,98.60
2019-03-03T11:35:34.707Z,98.80
2019-03-03T11:38:18.862Z,98.90
2019-03-03T11:40:58.651Z,99.50
2019-03-03T11:43:33.387Z,99.70
2019-03-03T11:46:25.483Z,99.90
2019-03-03T11:49:00.668Z,99.90
2019-03-03T11:51:47.755Z,99.90
2019-03-03T11:54:31.189Z,99.90
2019-03-03T11:57:12.619Z,99.90
2019-03-03T12:00:10.362Z,99.90
2019-03-03T12:03:13.910Z,99.90
2019-03-03T12:05:51.702Z,99.90
2019-03-03T12:08:39.020Z,99.90
2019-03-03T12:11:27.868Z,99.90
2019-03-03T12:14:31.655Z,99.90
2019-03-03T12:17:20.424Z,99.90
2019-03-03T12:20:11.672Z,99.90
2019-03-03T12:23:03.100Z,99.90
2019-03-03T12:25:52.256Z,99.90
2019-03-03T12:28:40.799Z,99.90
2019-03-03T12:31:29.524Z,99.90
2019-03-03T12:34:35.814Z,99.90
2019-03-03T12:37:33.596Z,99.90
2019-03-03T12:40:34.184Z,99.90
2019-03-03T12:43:16.533Z,99.90
2019-03-03T12:46:13.839Z,99.90
2019-03-03T12:49:02.422Z,99.90
2019-03-03T12:51:56.687Z,99.90
2019-03-03T12:54:44.580Z,99.90
2019-03-03T12:57:39.972Z,99.90
2019-03-03T13:00:26.580Z,99.90
2019-03-03T13:03:15.584Z,99.90
2019-03-03T13:06:03.408Z,99.90
2019-03-03T13:08:59.845Z,99.90
2019-03-03T13:11:44.405Z,99.90
2019-03-03T13:14:31.855Z,99.90
2019-03-03T13:17:18.930Z,99.90
2019-03-03T13:20:05.063Z,99.90
2019-03-03T13:22:47.020Z,99.90
2019-03-03T13:25:35.626Z,99.90
2019-03-03T13:28:21.109Z,99.90
2019-03-03T13:31:15.585Z,99.90
2019-03-03T13:34:09.848Z,99.90
2019-03-03T13:37:01.281Z,99.90
2019-03-03T13:40:08.107Z,99.90
2019-03-03T13:42:45.032Z,99.90
2019-03-03T13:45:15.529Z,99.90
2019-03-03T13:47:45.337Z,99.90
2019-03-03T13:50:16.348Z,99.90
2019-03-03T13:52:46.847Z,99.90
2019-03-03T13:55:16.989Z,99.90
2019-03-03T13:57:47.024Z,99.90
2019-03-03T14:00:20.243Z,99.90
2019-03-03T14:02:50.491Z,99.90
2019-03-03T14:05:22.075Z,99.90
2019-03-03T14:07:52.247Z,99.90
2019-03-03T14:10:22.133Z,99.90
2019-03-03T14:12:51.842Z,99.90
2019-03-03T14:15:21.729Z,99.90
2019-03-03T14:17:51.480Z,99.90
2019-03-03T14:20:22.818Z,99.90
2019-03-03T14:22:53.446Z,99.90
2019-03-03T14:25:23.339Z,99.90
2019-03-03T14:27:53.077Z,99.90
2019-03-03T14:30:24.556Z,99.90
2019-03-03T14:32:54.323Z,99.90
2019-03-03T14:35:24.076Z,99.90
2019-03-03T14:37:53.887Z,99.90
2019-03-03T14:40:23.714Z,99.90
2019-03-03T14:42:53.596Z,99.90
2019-03-03T14:45:25.098Z,99.90
2019-03-03T14:47:54.886Z,99.90
2019-03-03T14:50:24.875Z,99.90
2019-03-03T14:52:54.655Z,99.90
2019-03-03T14:55:24.774Z,99.90
2019-03-03T14:57:54.620Z,99.90
2019-03-03T15:00:28.101Z,99.90
2019-03-03T15:02:59.167Z,99.90
2019-03-03T15:05:28.971Z,99.90
2019-03-03T15:07:58.883Z,99.90
2019-03-03T15:10:28.986Z,99.90
2019-03-03T15:12:58.989Z,99.90
2019-03-03T15:15:29.591Z,99.90
2019-03-03T15:17:59.332Z,99.90
2019-03-03T15:20:29.157Z,99.90
2019-03-03T15:22:59.496Z,99.90
2019-03-03T15:25:29.204Z,99.90
2019-03-03T15:27:59.986Z,99.90
2019-03-03T15:30:30.191Z,99.90
2019-03-03T15:32:59.980Z,99.90
2019-03-03T15:35:29.830Z,99.90
2019-03-03T15:37:59.595Z,99.90
2019-03-03T15:40:29.791Z,99.90
2019-03-03T15:43:00.519Z,99.90
2019-03-03T15:45:30.599Z,99.90
2019-03-03T15:48:00.299Z,99.90
2019-03-03T15:50:31.109Z,99.90
2019-03-03T15:53:00.800Z,99.90
2019-03-03T15:55:31.146Z,99.90
2019-03-03T15:58:00.970Z,99.90
2019-03-03T16:00:31.595Z,99.90
2019-03-03T16:03:01.282Z,99.90
2019-03-03T16:05:31.157Z,99.90
2019-03-03T16:08:00.972Z,99.90
2019-03-03T16:10:31.065Z,99.90
2019-03-03T16:13:00.991Z,99.90
2019-03-03T16:15:30.771Z,99.90
2019-03-03T16:18:00.496Z,99.90
2019-03-03T16:20:30.163Z,99.90
2019-03-03T16:22:59.949Z,99.90
2019-03-03T16:25:29.772Z,99.90
2019-03-03T16:27:59.507Z,99.90
2019-03-03T16:30:29.179Z,99.90
2019-03-03T16:32:58.915Z,99.90
2019-03-03T16:35:29.409Z,99.90
2019-03-03T16:37:59.095Z,99.90
2019-03-03T16:40:39.042Z,99.90
2019-03-03T16:43:00.451Z,99.90
2019-03-03T16:45:30.290Z,99.90
2019-03-03T16:48:01.234Z,99.90
2019-03-03T16:50:31.584Z,99.90
2019-03-03T16:53:01.252Z,99.90
2019-03-03T16:55:31.023Z,99.90
2019-03-03T16:58:00.763Z,99.90
2019-03-03T17:00:30.542Z,99.90
2019-03-03T17:03:00.294Z,99.90
2019-03-03T17:05:31.016Z,99.90
2019-03-03T17:08:00.763Z,99.90
2019-03-03T17:10:30.549Z,99.90
2019-03-03T17:13:00.223Z,99.90
2019-03-03T17:15:30.204Z,99.90
2019-03-03T17:17:59.912Z,99.90
2019-03-03T17:20:29.566Z,99.90
2019-03-03T17:22:59.245Z,99.90
2019-03-03T17:25:29.005Z,99.90
2019-03-03T17:27:58.694Z,99.90
2019-03-03T17:30:28.635Z,99.90
2019-03-03T17:32:58.388Z,99.90
2019-03-03T17:35:28.115Z,99.90
2019-03-03T17:37:57.848Z,99.90
2019-03-03T17:40:27.603Z,99.90
2019-03-03T17:42:57.405Z,99.90
2019-03-03T17:45:27.229Z,99.90
2019-03-03T17:47:56.970Z,99.90
2019-03-03T17:50:28.444Z,99.90
2019-03-03T17:52:58.259Z,99.90
2019-03-03T17:55:29.296Z,99.90
2019-03-03T17:57:59.055Z,99.90
2019-03-03T18:00:31.825Z,99.90
2019-03-03T18:03:02.336Z,99.90
2019-03-03T18:05:32.051Z,99.90
2019-03-03T18:08:01.837Z,99.90
2019-03-03T18:10:33.437Z,99.90
2019-03-03T18:13:02.963Z,99.90
2019-03-03T18:15:32.727Z,99.90
2019-03-03T18:18:02.399Z,99.90
2019-03-03T18:20:32.117Z,99.90
2019-03-03T18:23:02.298Z,99.90
2019-03-03T18:25:32.014Z,99.90
2019-03-03T18:28:01.747Z,99.90
2019-03-03T18:30:31.637Z,99.90
2019-03-03T18:33:01.293Z,99.90
2019-03-03T18:35:31.126Z,99.90
2019-03-03T18:38:00.925Z,99.90
2019-03-03T18:40:30.674Z,99.90
2019-03-03T18:43:00.516Z,99.90
2019-03-03T18:45:30.205Z,99.90
2019-03-03T18:47:59.927Z,99.90
2019-03-03T18:50:29.741Z,99.90
2019-03-03T18:53:00.165Z,99.90
2019-03-03T18:55:30.219Z,99.90
2019-03-03T18:58:00.456Z,99.90
2019-03-03T19:00:30.844Z,99.90
2019-03-03T19:03:01.035Z,99.90
2019-03-03T19:05:31.082Z,99.90
2019-03-03T19:08:00.860Z,99.90
2019-03-03T19:10:30.577Z,99.90
2019-03-03T19:13:01.968Z,99.90
2019-03-03T19:15:33.369Z,99.90
2019-03-03T19:18:03.378Z,99.90
2019-03-03T19:20:33.132Z,99.90
2019-03-03T19:23:02.831Z,99.90
2019-03-03T19:25:32.564Z,99.90
2019-03-03T19:28:03.654Z,99.90
2019-03-03T19:30:33.392Z,99.90
2019-03-03T19:33:10.244Z,99.90
2019-03-03T19:35:40.437Z,99.90
2019-03-03T19:38:19.270Z,99.90
2019-03-03T19:40:53.324Z,99.90
2019-03-03T19:43:23.019Z,99.90
2019-03-03T19:45:52.972Z,99.90
2019-03-03T19:48:22.748Z,99.90
2019-03-03T19:50:52.406Z,99.90
2019-03-03T19:53:22.183Z,99.90
2019-03-03T19:55:51.887Z,99.90
2019-03-03T19:58:21.591Z,99.90
2019-03-03T20:00:51.334Z,99.90
2019-03-03T20:03:21.197Z,99.90
2019-03-03T20:05:50.851Z,99.90
2019-03-03T20:08:20.563Z,99.90
2019-03-03T20:10:50.284Z,99.90
2019-03-03T20:13:20.170Z,99.90
2019-03-03T20:15:50.897Z,99.90
2019-03-03T20:18:22.247Z,99.90
2019-03-03T20:20:51.987Z,99.90
2019-03-03T20:23:21.832Z,99.90
2019-03-03T20:25:51.648Z,99.90
2019-03-03T20:28:21.335Z,99.90
2019-03-03T20:30:51.756Z,99.90
2019-03-03T20:33:21.444Z,99.90
2019-03-03T20:35:51.499Z,99.90
2019-03-03T20:38:21.703Z,99.90
2019-03-03T20:40:51.418Z,99.90
2019-03-03T20:43:21.123Z,99.90
2019-03-03T20:45:53.295Z,99.90
2019-03-03T20:48:22.996Z,99.90
2019-03-03T20:50:54.865Z,99.90
2019-03-03T20:53:24.627Z,99.90
2019-03-03T20:55:54.308Z,99.90
2019-03-03T20:58:24.582Z,99.90
2019-03-03T21:00:54.292Z,99.90
2019-03-03T21:03:24.013Z,99.90
2019-03-03T21:05:53.740Z,99.90
2019-03-03T21:08:23.577Z,99.90
2019-03-03T21:10:53.294Z,99.90
2019-03-03T21:13:23.028Z,99.90
2019-03-03T21:15:52.823Z,99.90
2019-03-03T21:18:22.523Z,99.90
2019-03-03T21:20:52.189Z,99.90
2019-03-03T21:23:21.915Z,99.90
2019-03-03T21:25:51.639Z,99.90
2019-03-03T21:28:21.312Z,99.90
2019-03-03T21:30:51.051Z,99.90
2019-03-03T21:33:20.872Z,99.90
2019-03-03T21:35:50.592Z,99.90
2019-03-03T21:38:20.544Z,99.90
2019-03-03T21:40:50.195Z,99.90
2019-03-03T21:43:21.070Z,99.90
2019-03-03T21:45:51.405Z,99.90
2019-03-03T21:48:24.789Z,99.90
2019-03-03T21:50:54.476Z,99.90
2019-03-03T21:53:24.247Z,99.90
2019-03-03T21:55:53.977Z,99.90
2019-03-03T21:58:24.218Z,99.90
2019-03-03T22:00:53.956Z,99.90
2019-03-03T22:03:23.621Z,99.90
2019-03-03T22:05:53.370Z,99.90
2019-03-03T22:08:23.170Z,99.90
2019-03-03T22:10:57.345Z,99.90
2019-03-03T22:13:27.105Z,99.90
2019-03-03T22:15:56.981Z,99.90
2019-03-03T22:18:26.696Z,99.90
2019-03-03T22:20:58.014Z,99.90
2019-03-03T22:23:27.690Z,99.90
2019-03-03T22:25:57.455Z,99.90
2019-03-03T22:28:27.139Z,99.90
2019-03-03T22:30:56.839Z,99.90
2019-03-03T22:33:26.519Z,99.90
2019-03-03T22:35:56.239Z,99.90
2019-03-03T22:38:25.968Z,99.90
2019-03-03T22:40:55.691Z,99.90
2019-03-03T22:43:25.382Z,99.90
2019-03-03T22:45:55.159Z,99.90
2019-03-03T22:48:25.290Z,99.90
2019-03-03T22:50:55.029Z,99.90
2019-03-03T22:53:24.759Z,99.90
2019-03-03T22:55:54.404Z,99.90
2019-03-03T22:58:24.132Z,99.90
2019-03-03T23:01:04.010Z,99.90
2019-03-03T23:03:41.236Z,99.90
2019-03-03T23:06:15.081Z,99.90
2019-03-03T23:09:12.983Z,99.90
2019-03-03T23:12:09.068Z,99.90
2019-03-03T23:14:57.662Z,99.90
2019-03-03T23:17:51.559Z,99.90
2019-03-03T23:20:35.556Z,99.90
2019-03-03T23:23:34.072Z,99.90
2019-03-03T23:26:03.745Z,99.90
2019-03-03T23:28:33.434Z,99.90
2019-03-03T23:31:03.125Z,99.90
2019-03-03T23:33:32.810Z,99.90
2019-03-03T23:36:03.007Z,99.90
2019-03-03T23:38:32.729Z,99.90
2019-03-03T23:41:02.416Z,99.90
2019-03-03T23:43:32.135Z,99.90
2019-03-03T23:46:02.848Z,99.90
2019-03-03T23:48:32.538Z,99.90
2019-03-03T23:51:02.257Z,99.90
2019-03-03T23:53:31.961Z,99.90
2019-03-03T23:56:01.665Z,99.90
2019-03-03T23:58:32.183Z,99.90
